sensor_id;sensor_type;location;lat;lon;timestamp;temperature;humidity
25811;DHT22;13645;52.460;13.910;2022-11-20T00:01:25;0.50;99.90
25811;DHT22;13645;52.460;13.910;2022-11-20T00:03:53;0.50;99.90
25811;DHT22;13645;52.460;13.910;2022-11-20T00:06:22;0.50;99.90
25811;DHT22;13645;52.460;13.910;2022-11-20T00:08:49;0.40;99.90
25811;DHT22;13645;52.460;13.910;2022-11-20T00:11:19;0.40;99.90
25811;DHT22;13645;52.460;13.910;2022-11-20T00:13:49;0.50;99.90
25811;DHT22;13645;52.460;13.910;2022-11-20T00:16:18;0.50;99.90
25811;DHT22;13645;52.460;13.910;2022-11-20T00:18:45;0.50;99.90
25811;DHT22;13645;52.460;13.910;2022-11-20T00:23:43;0.50;99.90
25811;DHT22;13645;52.460;13.910;2022-11-20T00:26:15;0.50;99.90
25811;DHT22;13645;52.460;13.910;2022-11-20T00:28:43;0.40;99.90
25811;DHT22;13645;52.460;13.910;2022-11-20T00:31:13;0.40;99.90
25811;DHT22;13645;52.460;13.910;2022-11-20T00:33:40;0.40;99.90
25811;DHT22;13645;52.460;13.910;2022-11-20T00:36:21;0.40;99.90
25811;DHT22;13645;52.460;13.910;2022-11-20T00:38:52;0.40;99.90
25811;DHT22;13645;52.460;13.910;2022-11-20T00:41:19;0.40;99.90
25811;DHT22;13645;52.460;13.910;2022-11-20T00:43:45;0.40;99.90
25811;DHT22;13645;52.460;13.910;2022-11-20T00:46:14;0.40;99.90
25811;DHT22;13645;52.460;13.910;2022-11-20T00:48:42;0.50;99.90
25811;DHT22;13645;52.460;13.910;2022-11-20T00:51:09;0.40;99.90
25811;DHT22;13645;52.460;13.910;2022-11-20T00:53:36;0.50;99.90
25811;DHT22;13645;52.460;13.910;2022-11-20T00:56:06;0.50;99.90
25811;DHT22;13645;52.460;13.910;2022-11-20T00:58:35;0.50;99.90
25811;DHT22;13645;52.460;13.910;2022-11-20T01:01:04;0.40;99.90
25811;DHT22;13645;52.460;13.910;2022-11-20T01:03:33;0.50;99.90
25811;DHT22;13645;52.460;13.910;2022-11-20T01:06:01;0.40;99.90
25811;DHT22;13645;52.460;13.910;2022-11-20T01:08:32;0.40;99.90
25811;DHT22;13645;52.460;13.910;2022-11-20T01:11:07;0.40;99.90
25811;DHT22;13645;52.460;13.910;2022-11-20T01:13:35;0.40;99.90
25811;DHT22;13645;52.460;13.910;2022-11-20T01:16:11;0.40;99.90
25811;DHT22;13645;52.460;13.910;2022-11-20T01:18:39;0.40;99.90
25811;DHT22;13645;52.460;13.910;2022-11-20T01:21:08;0.40;99.90
25811;DHT22;13645;52.460;13.910;2022-11-20T01:23:38;0.40;99.90
25811;DHT22;13645;52.460;13.910;2022-11-20T01:26:06;0.40;99.90
25811;DHT22;13645;52.460;13.910;2022-11-20T01:28:34;0.40;99.90
25811;DHT22;13645;52.460;13.910;2022-11-20T01:31:09;0.40;99.90
25811;DHT22;13645;52.460;13.910;2022-11-20T01:33:38;0.50;99.90
25811;DHT22;13645;52.460;13.910;2022-11-20T01:36:06;0.40;99.90
25811;DHT22;13645;52.460;13.910;2022-11-20T01:38:34;0.40;99.90
25811;DHT22;13645;52.460;13.910;2022-11-20T01:41:01;0.40;99.90
25811;DHT22;13645;52.460;13.910;2022-11-20T01:43:27;0.40;99.90
25811;DHT22;13645;52.460;13.910;2022-11-20T01:46:14;0.40;99.90
25811;DHT22;13645;52.460;13.910;2022-11-20T01:53:52;0.30;99.90
25811;DHT22;13645;52.460;13.910;2022-11-20T01:56:20;0.30;99.90
25811;DHT22;13645;52.460;13.910;2022-11-20T01:58:52;0.20;99.90
25811;DHT22;13645;52.460;13.910;2022-11-20T02:01:21;0.30;99.90
25811;DHT22;13645;52.460;13.910;2022-11-20T02:03:48;0.30;99.90
25811;DHT22;13645;52.460;13.910;2022-11-20T02:06:19;0.30;99.90
25811;DHT22;13645;52.460;13.910;2022-11-20T02:08:48;0.20;99.90
25811;DHT22;13645;52.460;13.910;2022-11-20T02:11:14;0.20;99.90
25811;DHT22;13645;52.460;13.910;2022-11-20T02:13:41;0.30;99.90
25811;DHT22;13645;52.460;13.910;2022-11-20T02:16:39;0.20;99.90
25811;DHT22;13645;52.460;13.910;2022-11-20T02:19:12;0.20;99.90
25811;DHT22;13645;52.460;13.910;2022-11-20T02:24:19;0.20;99.90
25811;DHT22;13645;52.460;13.910;2022-11-20T02:26:59;0.20;99.90
25811;DHT22;13645;52.460;13.910;2022-11-20T02:29:57;0.20;99.90
25811;DHT22;13645;52.460;13.910;2022-11-20T02:32:35;0.20;99.90
25811;DHT22;13645;52.460;13.910;2022-11-20T02:35:35;0.30;99.90
25811;DHT22;13645;52.460;13.910;2022-11-20T02:37:58;0.30;99.90
25811;DHT22;13645;52.460;13.910;2022-11-20T02:40:25;0.20;99.90
25811;DHT22;13645;52.460;13.910;2022-11-20T02:42:53;0.20;99.90
25811;DHT22;13645;52.460;13.910;2022-11-20T02:45:20;0.20;99.90
25811;DHT22;13645;52.460;13.910;2022-11-20T02:47:47;0.30;99.90
25811;DHT22;13645;52.460;13.910;2022-11-20T02:50:14;0.30;99.90
25811;DHT22;13645;52.460;13.910;2022-11-20T02:52:40;0.20;99.90
25811;DHT22;13645;52.460;13.910;2022-11-20T02:55:07;0.30;99.90
25811;DHT22;13645;52.460;13.910;2022-11-20T02:57:34;0.20;99.90
25811;DHT22;13645;52.460;13.910;2022-11-20T03:00:01;0.20;99.90
25811;DHT22;13645;52.460;13.910;2022-11-20T03:02:32;0.20;99.90
25811;DHT22;13645;52.460;13.910;2022-11-20T03:04:59;0.20;99.90
25811;DHT22;13645;52.460;13.910;2022-11-20T03:07:25;0.20;99.90
25811;DHT22;13645;52.460;13.910;2022-11-20T03:09:52;0.20;99.90
25811;DHT22;13645;52.460;13.910;2022-11-20T03:12:19;0.20;99.90
25811;DHT22;13645;52.460;13.910;2022-11-20T03:14:46;0.10;99.90
25811;DHT22;13645;52.460;13.910;2022-11-20T03:17:18;0.10;99.90
25811;DHT22;13645;52.460;13.910;2022-11-20T03:19:45;0.20;99.90
25811;DHT22;13645;52.460;13.910;2022-11-20T03:22:12;0.10;99.90
25811;DHT22;13645;52.460;13.910;2022-11-20T03:24:38;0.10;99.90
25811;DHT22;13645;52.460;13.910;2022-11-20T03:27:05;0.00;99.90
25811;DHT22;13645;52.460;13.910;2022-11-20T03:29:32;0.10;99.90
25811;DHT22;13645;52.460;13.910;2022-11-20T03:31:58;0.10;99.90
25811;DHT22;13645;52.460;13.910;2022-11-20T03:34:25;0.10;99.90
25811;DHT22;13645;52.460;13.910;2022-11-20T03:36:52;0.10;99.90
25811;DHT22;13645;52.460;13.910;2022-11-20T03:39:18;0.10;99.90
25811;DHT22;13645;52.460;13.910;2022-11-20T03:41:46;0.10;99.90
25811;DHT22;13645;52.460;13.910;2022-11-20T03:44:12;0.10;99.90
25811;DHT22;13645;52.460;13.910;2022-11-20T03:46:39;0.10;99.90
25811;DHT22;13645;52.460;13.910;2022-11-20T03:49:06;0.10;99.90
25811;DHT22;13645;52.460;13.910;2022-11-20T03:51:35;0.10;99.90
25811;DHT22;13645;52.460;13.910;2022-11-20T03:54:04;0.00;99.90
25811;DHT22;13645;52.460;13.910;2022-11-20T03:56:34;0.10;99.90
25811;DHT22;13645;52.460;13.910;2022-11-20T03:59:01;0.10;99.90
25811;DHT22;13645;52.460;13.910;2022-11-20T04:01:30;0.00;99.90
25811;DHT22;13645;52.460;13.910;2022-11-20T04:03:57;0.00;99.90
25811;DHT22;13645;52.460;13.910;2022-11-20T04:06:30;0.00;99.90
25811;DHT22;13645;52.460;13.910;2022-11-20T04:08:58;0.00;99.90
25811;DHT22;13645;52.460;13.910;2022-11-20T04:11:30;0.00;99.90
25811;DHT22;13645;52.460;13.910;2022-11-20T04:13:59;0.10;99.90
25811;DHT22;13645;52.460;13.910;2022-11-20T04:16:29;0.00;99.90
25811;DHT22;13645;52.460;13.910;2022-11-20T04:18:58;0.00;99.90
25811;DHT22;13645;52.460;13.910;2022-11-20T04:21:26;0.00;99.90
25811;DHT22;13645;52.460;13.910;2022-11-20T04:23:53;0.00;99.90
25811;DHT22;13645;52.460;13.910;2022-11-20T04:26:22;0.00;99.90
25811;DHT22;13645;52.460;13.910;2022-11-20T04:28:49;0.00;99.90
25811;DHT22;13645;52.460;13.910;2022-11-20T04:31:18;0.00;99.90
25811;DHT22;13645;52.460;13.910;2022-11-20T04:33:46;0.00;99.90
25811;DHT22;13645;52.460;13.910;2022-11-20T04:36:18;0.00;99.90
25811;DHT22;13645;52.460;13.910;2022-11-20T04:38:45;-0.10;99.90
25811;DHT22;13645;52.460;13.910;2022-11-20T04:41:17;-0.10;99.90
25811;DHT22;13645;52.460;13.910;2022-11-20T04:43:48;0.00;99.90
25811;DHT22;13645;52.460;13.910;2022-11-20T04:46:19;0.00;99.90
25811;DHT22;13645;52.460;13.910;2022-11-20T04:48:47;0.00;99.90
25811;DHT22;13645;52.460;13.910;2022-11-20T04:51:13;0.00;99.90
25811;DHT22;13645;52.460;13.910;2022-11-20T04:53:41;0.00;99.90
25811;DHT22;13645;52.460;13.910;2022-11-20T04:56:09;0.00;99.90
25811;DHT22;13645;52.460;13.910;2022-11-20T04:58:37;0.00;99.90
25811;DHT22;13645;52.460;13.910;2022-11-20T05:01:06;-0.10;99.90
25811;DHT22;13645;52.460;13.910;2022-11-20T05:03:33;-0.20;99.90
25811;DHT22;13645;52.460;13.910;2022-11-20T05:06:07;-0.20;99.90
25811;DHT22;13645;52.460;13.910;2022-11-20T05:08:34;-0.10;99.90
25811;DHT22;13645;52.460;13.910;2022-11-20T05:11:10;-0.20;99.90
25811;DHT22;13645;52.460;13.910;2022-11-20T05:13:37;-0.30;99.90
25811;DHT22;13645;52.460;13.910;2022-11-20T05:16:12;-0.30;99.90
25811;DHT22;13645;52.460;13.910;2022-11-20T05:18:40;-0.40;99.90
25811;DHT22;13645;52.460;13.910;2022-11-20T05:21:09;-0.40;99.90
25811;DHT22;13645;52.460;13.910;2022-11-20T05:23:36;-0.40;99.90
25811;DHT22;13645;52.460;13.910;2022-11-20T05:26:04;-0.50;99.90
25811;DHT22;13645;52.460;13.910;2022-11-20T05:28:31;-0.50;99.90
25811;DHT22;13645;52.460;13.910;2022-11-20T05:31:10;-0.50;99.90
25811;DHT22;13645;52.460;13.910;2022-11-20T05:33:40;-0.50;99.90
25811;DHT22;13645;52.460;13.910;2022-11-20T05:36:07;-0.50;99.90
25811;DHT22;13645;52.460;13.910;2022-11-20T05:38:34;-0.50;99.90
25811;DHT22;13645;52.460;13.910;2022-11-20T05:41:09;-0.50;99.90
25811;DHT22;13645;52.460;13.910;2022-11-20T05:43:37;-0.60;99.90
25811;DHT22;13645;52.460;13.910;2022-11-20T05:46:05;-0.60;99.90
25811;DHT22;13645;52.460;13.910;2022-11-20T05:48:33;-0.60;99.90
25811;DHT22;13645;52.460;13.910;2022-11-20T05:51:02;-0.50;99.90
25811;DHT22;13645;52.460;13.910;2022-11-20T05:53:29;-0.50;99.90
25811;DHT22;13645;52.460;13.910;2022-11-20T05:56:04;-0.60;99.90
25811;DHT22;13645;52.460;13.910;2022-11-20T05:58:32;-0.60;99.90
25811;DHT22;13645;52.460;13.910;2022-11-20T06:01:05;-0.60;99.90
25811;DHT22;13645;52.460;13.910;2022-11-20T06:03:32;-0.60;99.90
25811;DHT22;13645;52.460;13.910;2022-11-20T06:06:00;-0.60;99.90
25811;DHT22;13645;52.460;13.910;2022-11-20T06:08:28;-0.60;99.90
25811;DHT22;13645;52.460;13.910;2022-11-20T06:10:56;-0.60;99.90
25811;DHT22;13645;52.460;13.910;2022-11-20T06:13:23;-0.60;99.90
25811;DHT22;13645;52.460;13.910;2022-11-20T06:15:53;-0.60;99.90
25811;DHT22;13645;52.460;13.910;2022-11-20T06:18:20;-0.60;99.90
25811;DHT22;13645;52.460;13.910;2022-11-20T06:20:47;-0.60;99.90
25811;DHT22;13645;52.460;13.910;2022-11-20T06:23:13;-0.60;99.90
25811;DHT22;13645;52.460;13.910;2022-11-20T06:25:41;-0.60;99.90
25811;DHT22;13645;52.460;13.910;2022-11-20T06:28:08;-0.50;99.90
25811;DHT22;13645;52.460;13.910;2022-11-20T06:30:35;-0.50;99.90
25811;DHT22;13645;52.460;13.910;2022-11-20T06:33:02;-0.60;99.90
25811;DHT22;13645;52.460;13.910;2022-11-20T06:35:29;-0.60;99.90
25811;DHT22;13645;52.460;13.910;2022-11-20T06:37:55;-0.60;99.90
25811;DHT22;13645;52.460;13.910;2022-11-20T06:40:22;-0.60;99.90
25811;DHT22;13645;52.460;13.910;2022-11-20T06:42:49;-0.60;99.90
25811;DHT22;13645;52.460;13.910;2022-11-20T06:45:16;-0.50;99.90
25811;DHT22;13645;52.460;13.910;2022-11-20T06:47:42;-0.50;99.90
25811;DHT22;13645;52.460;13.910;2022-11-20T06:50:09;-0.50;99.90
25811;DHT22;13645;52.460;13.910;2022-11-20T06:52:36;-0.50;99.90
25811;DHT22;13645;52.460;13.910;2022-11-20T06:55:09;-0.50;99.90
25811;DHT22;13645;52.460;13.910;2022-11-20T06:57:35;-0.50;99.90
25811;DHT22;13645;52.460;13.910;2022-11-20T07:00:02;-0.50;99.90
25811;DHT22;13645;52.460;13.910;2022-11-20T07:02:29;-0.50;99.90
25811;DHT22;13645;52.460;13.910;2022-11-20T07:04:56;-0.50;99.90
25811;DHT22;13645;52.460;13.910;2022-11-20T07:07:23;-0.50;99.90
25811;DHT22;13645;52.460;13.910;2022-11-20T07:09:49;-0.50;99.90
25811;DHT22;13645;52.460;13.910;2022-11-20T07:12:16;-0.40;99.90
25811;DHT22;13645;52.460;13.910;2022-11-20T07:14:43;-0.40;99.90
25811;DHT22;13645;52.460;13.910;2022-11-20T07:17:10;-0.40;99.90
25811;DHT22;13645;52.460;13.910;2022-11-20T07:19:37;-0.40;99.90
25811;DHT22;13645;52.460;13.910;2022-11-20T07:22:04;-0.40;99.90
25811;DHT22;13645;52.460;13.910;2022-11-20T07:24:31;-0.30;99.90
25811;DHT22;13645;52.460;13.910;2022-11-20T07:26:57;-0.30;99.90
25811;DHT22;13645;52.460;13.910;2022-11-20T07:29:24;-0.30;99.90
25811;DHT22;13645;52.460;13.910;2022-11-20T07:31:51;-0.30;99.90
25811;DHT22;13645;52.460;13.910;2022-11-20T07:34:17;-0.20;99.90
25811;DHT22;13645;52.460;13.910;2022-11-20T07:36:44;-0.20;99.90
25811;DHT22;13645;52.460;13.910;2022-11-20T07:39:11;-0.20;99.90
25811;DHT22;13645;52.460;13.910;2022-11-20T07:41:37;-0.10;99.90
25811;DHT22;13645;52.460;13.910;2022-11-20T07:44:04;-0.10;99.90
25811;DHT22;13645;52.460;13.910;2022-11-20T07:46:31;-0.10;99.90
25811;DHT22;13645;52.460;13.910;2022-11-20T07:48:58;0.00;99.90
25811;DHT22;13645;52.460;13.910;2022-11-20T07:51:24;-0.10;99.90
25811;DHT22;13645;52.460;13.910;2022-11-20T07:53:52;-0.10;99.90
25811;DHT22;13645;52.460;13.910;2022-11-20T07:56:19;0.00;99.90
25811;DHT22;13645;52.460;13.910;2022-11-20T07:58:46;0.00;99.90
25811;DHT22;13645;52.460;13.910;2022-11-20T08:01:12;0.10;99.90
25811;DHT22;13645;52.460;13.910;2022-11-20T08:03:39;0.10;99.90
25811;DHT22;13645;52.460;13.910;2022-11-20T08:06:07;0.10;99.90
25811;DHT22;13645;52.460;13.910;2022-11-20T08:08:34;0.20;99.90
25811;DHT22;13645;52.460;13.910;2022-11-20T08:11:07;0.20;99.90
25811;DHT22;13645;52.460;13.910;2022-11-20T08:13:52;0.20;99.90
25811;DHT22;13645;52.460;13.910;2022-11-20T08:16:57;0.10;99.90
25811;DHT22;13645;52.460;13.910;2022-11-20T08:19:24;0.20;99.90
25811;DHT22;13645;52.460;13.910;2022-11-20T08:21:50;0.20;99.90
25811;DHT22;13645;52.460;13.910;2022-11-20T08:24:17;0.20;99.90
25811;DHT22;13645;52.460;13.910;2022-11-20T08:26:44;0.30;99.90
25811;DHT22;13645;52.460;13.910;2022-11-20T08:29:11;0.30;99.90
25811;DHT22;13645;52.460;13.910;2022-11-20T08:31:37;0.30;99.90
25811;DHT22;13645;52.460;13.910;2022-11-20T08:34:04;0.30;99.90
25811;DHT22;13645;52.460;13.910;2022-11-20T08:36:36;0.20;99.90
25811;DHT22;13645;52.460;13.910;2022-11-20T08:39:03;0.30;99.90
25811;DHT22;13645;52.460;13.910;2022-11-20T08:41:30;0.30;99.90
25811;DHT22;13645;52.460;13.910;2022-11-20T08:44:01;0.20;99.90
25811;DHT22;13645;52.460;13.910;2022-11-20T08:46:41;0.30;99.90
25811;DHT22;13645;52.460;13.910;2022-11-20T08:49:11;0.30;99.90
25811;DHT22;13645;52.460;13.910;2022-11-20T08:51:38;0.30;99.90
25811;DHT22;13645;52.460;13.910;2022-11-20T08:54:05;0.40;99.90
25811;DHT22;13645;52.460;13.910;2022-11-20T08:56:33;0.40;99.90
25811;DHT22;13645;52.460;13.910;2022-11-20T08:59:00;0.40;99.90
25811;DHT22;13645;52.460;13.910;2022-11-20T09:01:47;0.50;99.90
25811;DHT22;13645;52.460;13.910;2022-11-20T09:04:14;0.50;99.90
25811;DHT22;13645;52.460;13.910;2022-11-20T09:06:40;0.50;99.90
25811;DHT22;13645;52.460;13.910;2022-11-20T09:09:07;0.60;99.90
25811;DHT22;13645;52.460;13.910;2022-11-20T09:11:34;0.50;99.90
25811;DHT22;13645;52.460;13.910;2022-11-20T09:14:02;0.50;99.90
25811;DHT22;13645;52.460;13.910;2022-11-20T09:16:29;0.50;99.90
25811;DHT22;13645;52.460;13.910;2022-11-20T09:18:56;0.50;99.90
25811;DHT22;13645;52.460;13.910;2022-11-20T09:21:42;0.40;99.90
25811;DHT22;13645;52.460;13.910;2022-11-20T09:24:09;0.40;99.90
25811;DHT22;13645;52.460;13.910;2022-11-20T09:26:36;0.40;99.90
25811;DHT22;13645;52.460;13.910;2022-11-20T09:29:02;0.50;99.90
25811;DHT22;13645;52.460;13.910;2022-11-20T09:31:29;0.50;99.90
25811;DHT22;13645;52.460;13.910;2022-11-20T09:33:56;0.50;99.90
25811;DHT22;13645;52.460;13.910;2022-11-20T09:36:22;0.50;99.90
25811;DHT22;13645;52.460;13.910;2022-11-20T09:38:49;0.40;99.90
25811;DHT22;13645;52.460;13.910;2022-11-20T09:41:40;0.40;99.90
25811;DHT22;13645;52.460;13.910;2022-11-20T09:44:28;0.50;99.90
25811;DHT22;13645;52.460;13.910;2022-11-20T09:47:02;0.50;99.90
25811;DHT22;13645;52.460;13.910;2022-11-20T09:50:06;0.50;99.90
25811;DHT22;13645;52.460;13.910;2022-11-20T09:52:48;0.50;99.90
25811;DHT22;13645;52.460;13.910;2022-11-20T09:55:20;0.50;99.90
25811;DHT22;13645;52.460;13.910;2022-11-20T09:57:51;0.50;99.90
25811;DHT22;13645;52.460;13.910;2022-11-20T10:00:19;0.50;99.90
25811;DHT22;13645;52.460;13.910;2022-11-20T10:03:02;0.50;99.90
25811;DHT22;13645;52.460;13.910;2022-11-20T10:05:57;0.50;99.90
25811;DHT22;13645;52.460;13.910;2022-11-20T10:08:24;0.50;99.90
25811;DHT22;13645;52.460;13.910;2022-11-20T10:30:06;0.60;99.90
25811;DHT22;13645;52.460;13.910;2022-11-20T10:32:43;0.60;99.90
25811;DHT22;13645;52.460;13.910;2022-11-20T10:35:41;0.60;99.90
25811;DHT22;13645;52.460;13.910;2022-11-20T10:38:23;0.70;99.90
25811;DHT22;13645;52.460;13.910;2022-11-20T10:40:56;0.70;99.90
25811;DHT22;13645;52.460;13.910;2022-11-20T10:43:49;0.80;99.90
25811;DHT22;13645;52.460;13.910;2022-11-20T10:46:20;0.80;99.90
25811;DHT22;13645;52.460;13.910;2022-11-20T10:48:48;0.80;99.90
25811;DHT22;13645;52.460;13.910;2022-11-20T11:00:11;1.00;99.90
25811;DHT22;13645;52.460;13.910;2022-11-20T11:05:41;1.10;99.90
25811;DHT22;13645;52.460;13.910;2022-11-20T11:08:14;1.30;99.90
25811;DHT22;13645;52.460;13.910;2022-11-20T11:13:25;1.30;99.90
25811;DHT22;13645;52.460;13.910;2022-11-20T11:15:52;1.30;99.90
25811;DHT22;13645;52.460;13.910;2022-11-20T11:18:33;1.40;99.90
25811;DHT22;13645;52.460;13.910;2022-11-20T11:21:03;1.30;99.90
25811;DHT22;13645;52.460;13.910;2022-11-20T11:23:39;1.30;99.90
25811;DHT22;13645;52.460;13.910;2022-11-20T11:26:19;1.40;99.90
25811;DHT22;13645;52.460;13.910;2022-11-20T11:29:00;1.50;99.90
25811;DHT22;13645;52.460;13.910;2022-11-20T11:31:32;1.50;99.90
25811;DHT22;13645;52.460;13.910;2022-11-20T11:34:15;1.50;99.90
25811;DHT22;13645;52.460;13.910;2022-11-20T11:36:52;1.60;99.90
25811;DHT22;13645;52.460;13.910;2022-11-20T11:39:20;1.80;99.90
25811;DHT22;13645;52.460;13.910;2022-11-20T11:41:48;2.20;99.90
25811;DHT22;13645;52.460;13.910;2022-11-20T11:47:04;2.90;99.90
25811;DHT22;13645;52.460;13.910;2022-11-20T11:49:31;3.00;99.90
25811;DHT22;13645;52.460;13.910;2022-11-20T11:54:45;2.60;99.90
25811;DHT22;13645;52.460;13.910;2022-11-20T11:57:40;2.30;99.90
25811;DHT22;13645;52.460;13.910;2022-11-20T12:00:22;2.10;99.90
25811;DHT22;13645;52.460;13.910;2022-11-20T12:02:58;2.00;99.90
25811;DHT22;13645;52.460;13.910;2022-11-20T12:05:32;2.00;99.90
25811;DHT22;13645;52.460;13.910;2022-11-20T12:08:15;2.00;99.90
25811;DHT22;13645;52.460;13.910;2022-11-20T12:10:56;2.00;99.90
25811;DHT22;13645;52.460;13.910;2022-11-20T12:15:58;1.80;99.90
25811;DHT22;13645;52.460;13.910;2022-11-20T12:18:25;1.60;99.90
25811;DHT22;13645;52.460;13.910;2022-11-20T12:29:37;1.60;99.90
25811;DHT22;13645;52.460;13.910;2022-11-20T12:34:40;1.70;99.90
25811;DHT22;13645;52.460;13.910;2022-11-20T12:37:30;1.70;99.90
25811;DHT22;13645;52.460;13.910;2022-11-20T12:45:56;1.60;99.90
25811;DHT22;13645;52.460;13.910;2022-11-20T13:01:55;1.50;99.90
25811;DHT22;13645;52.460;13.910;2022-11-20T13:04:34;1.50;99.90
25811;DHT22;13645;52.460;13.910;2022-11-20T13:07:07;1.40;99.90
25811;DHT22;13645;52.460;13.910;2022-11-20T13:09:46;1.40;99.90
25811;DHT22;13645;52.460;13.910;2022-11-20T13:15:26;1.50;99.90
25811;DHT22;13645;52.460;13.910;2022-11-20T13:17:58;1.60;99.90
25811;DHT22;13645;52.460;13.910;2022-11-20T13:20:26;1.70;99.90
25811;DHT22;13645;52.460;13.910;2022-11-20T13:22:54;1.70;99.90
25811;DHT22;13645;52.460;13.910;2022-11-20T13:25:27;1.70;99.90
25811;DHT22;13645;52.460;13.910;2022-11-20T13:27:55;1.70;99.90
25811;DHT22;13645;52.460;13.910;2022-11-20T13:30:24;1.70;99.90
25811;DHT22;13645;52.460;13.910;2022-11-20T13:33:23;1.60;99.90
25811;DHT22;13645;52.460;13.910;2022-11-20T13:36:03;1.60;99.90
25811;DHT22;13645;52.460;13.910;2022-11-20T13:38:49;1.60;99.90
25811;DHT22;13645;52.460;13.910;2022-11-20T13:41:35;1.60;99.90
25811;DHT22;13645;52.460;13.910;2022-11-20T13:44:33;1.50;99.90
25811;DHT22;13645;52.460;13.910;2022-11-20T13:47:02;1.40;99.90
25811;DHT22;13645;52.460;13.910;2022-11-20T13:49:34;1.30;99.90
25811;DHT22;13645;52.460;13.910;2022-11-20T13:55:10;1.20;99.90
25811;DHT22;13645;52.460;13.910;2022-11-20T13:58:12;1.10;99.90
25811;DHT22;13645;52.460;13.910;2022-11-20T14:00:57;1.00;99.90
25811;DHT22;13645;52.460;13.910;2022-11-20T14:03:25;1.10;99.90
25811;DHT22;13645;52.460;13.910;2022-11-20T14:06:30;1.00;99.90
25811;DHT22;13645;52.460;13.910;2022-11-20T14:08:59;1.00;99.90
25811;DHT22;13645;52.460;13.910;2022-11-20T14:11:30;1.10;99.90
25811;DHT22;13645;52.460;13.910;2022-11-20T14:14:10;1.10;99.90
25811;DHT22;13645;52.460;13.910;2022-11-20T14:16:39;1.00;99.90
25811;DHT22;13645;52.460;13.910;2022-11-20T14:22:09;1.00;99.90
25811;DHT22;13645;52.460;13.910;2022-11-20T14:24:36;1.00;99.90
25811;DHT22;13645;52.460;13.910;2022-11-20T14:27:03;1.00;99.90
25811;DHT22;13645;52.460;13.910;2022-11-20T14:29:36;1.00;99.90
25811;DHT22;13645;52.460;13.910;2022-11-20T14:32:04;1.10;99.90
25811;DHT22;13645;52.460;13.910;2022-11-20T14:34:33;1.10;99.90
25811;DHT22;13645;52.460;13.910;2022-11-20T14:37:06;1.10;99.90
25811;DHT22;13645;52.460;13.910;2022-11-20T14:39:48;1.10;99.90
25811;DHT22;13645;52.460;13.910;2022-11-20T14:42:17;1.00;99.90
25811;DHT22;13645;52.460;13.910;2022-11-20T14:44:44;1.00;99.90
25811;DHT22;13645;52.460;13.910;2022-11-20T14:47:13;1.00;99.90
25811;DHT22;13645;52.460;13.910;2022-11-20T14:49:41;1.10;99.90
25811;DHT22;13645;52.460;13.910;2022-11-20T14:52:16;1.10;99.90
25811;DHT22;13645;52.460;13.910;2022-11-20T14:54:48;1.10;99.90
25811;DHT22;13645;52.460;13.910;2022-11-20T14:57:27;1.10;99.90
25811;DHT22;13645;52.460;13.910;2022-11-20T15:00:23;1.00;99.90
25811;DHT22;13645;52.460;13.910;2022-11-20T15:02:51;1.00;99.90
25811;DHT22;13645;52.460;13.910;2022-11-20T15:05:24;0.90;99.90
25811;DHT22;13645;52.460;13.910;2022-11-20T15:08:08;0.90;99.90
25811;DHT22;13645;52.460;13.910;2022-11-20T15:10:35;0.90;99.90
25811;DHT22;13645;52.460;13.910;2022-11-20T15:13:12;0.90;99.90
25811;DHT22;13645;52.460;13.910;2022-11-20T15:15:50;1.00;99.90
25811;DHT22;13645;52.460;13.910;2022-11-20T15:18:20;0.90;99.90
25811;DHT22;13645;52.460;13.910;2022-11-20T15:20:48;1.00;99.90
25811;DHT22;13645;52.460;13.910;2022-11-20T15:23:16;1.00;99.90
25811;DHT22;13645;52.460;13.910;2022-11-20T15:25:45;1.00;99.90
25811;DHT22;13645;52.460;13.910;2022-11-20T15:28:20;0.90;99.90
25811;DHT22;13645;52.460;13.910;2022-11-20T15:30:49;0.90;99.90
25811;DHT22;13645;52.460;13.910;2022-11-20T15:33:16;1.00;99.90
25811;DHT22;13645;52.460;13.910;2022-11-20T15:35:43;1.00;99.90
25811;DHT22;13645;52.460;13.910;2022-11-20T15:38:10;1.00;99.90
25811;DHT22;13645;52.460;13.910;2022-11-20T15:40:37;0.90;99.90
25811;DHT22;13645;52.460;13.910;2022-11-20T15:43:04;0.90;99.90
25811;DHT22;13645;52.460;13.910;2022-11-20T15:48:10;1.00;99.90
25811;DHT22;13645;52.460;13.910;2022-11-20T15:50:49;1.00;99.90
25811;DHT22;13645;52.460;13.910;2022-11-20T15:53:17;1.00;99.90
25811;DHT22;13645;52.460;13.910;2022-11-20T15:55:44;1.10;99.90
25811;DHT22;13645;52.460;13.910;2022-11-20T15:58:10;1.10;99.90
25811;DHT22;13645;52.460;13.910;2022-11-20T16:00:37;1.00;99.90
25811;DHT22;13645;52.460;13.910;2022-11-20T16:03:04;1.00;99.90
25811;DHT22;13645;52.460;13.910;2022-11-20T16:05:31;1.00;99.90
25811;DHT22;13645;52.460;13.910;2022-11-20T16:07:58;1.00;99.90
25811;DHT22;13645;52.460;13.910;2022-11-20T16:10:25;1.10;99.90
25811;DHT22;13645;52.460;13.910;2022-11-20T16:12:51;1.10;99.90
25811;DHT22;13645;52.460;13.910;2022-11-20T16:15:36;1.10;99.90
25811;DHT22;13645;52.460;13.910;2022-11-20T16:18:20;1.10;99.90
25811;DHT22;13645;52.460;13.910;2022-11-20T16:20:49;1.10;99.90
25811;DHT22;13645;52.460;13.910;2022-11-20T16:23:17;1.10;99.90
25811;DHT22;13645;52.460;13.910;2022-11-20T16:25:44;1.00;99.90
25811;DHT22;13645;52.460;13.910;2022-11-20T16:28:11;1.00;99.90
25811;DHT22;13645;52.460;13.910;2022-11-20T16:30:44;1.10;99.90
25811;DHT22;13645;52.460;13.910;2022-11-20T16:33:16;1.10;99.90
25811;DHT22;13645;52.460;13.910;2022-11-20T16:35:43;1.10;99.90
25811;DHT22;13645;52.460;13.910;2022-11-20T16:38:10;1.10;99.90
25811;DHT22;13645;52.460;13.910;2022-11-20T16:40:37;1.10;99.90
25811;DHT22;13645;52.460;13.910;2022-11-20T16:43:12;1.10;99.90
25811;DHT22;13645;52.460;13.910;2022-11-20T16:45:41;1.10;99.90
25811;DHT22;13645;52.460;13.910;2022-11-20T16:48:11;1.10;99.90
25811;DHT22;13645;52.460;13.910;2022-11-20T16:50:48;1.10;99.90
25811;DHT22;13645;52.460;13.910;2022-11-20T16:53:16;1.10;99.90
25811;DHT22;13645;52.460;13.910;2022-11-20T16:55:43;1.20;99.90
25811;DHT22;13645;52.460;13.910;2022-11-20T16:58:10;1.10;99.90
25811;DHT22;13645;52.460;13.910;2022-11-20T17:00:38;1.10;99.90
25811;DHT22;13645;52.460;13.910;2022-11-20T17:03:05;1.10;99.90
25811;DHT22;13645;52.460;13.910;2022-11-20T17:05:33;1.00;99.90
25811;DHT22;13645;52.460;13.910;2022-11-20T17:08:00;1.00;99.90
25811;DHT22;13645;52.460;13.910;2022-11-20T17:10:27;0.90;99.90
25811;DHT22;13645;52.460;13.910;2022-11-20T17:12:54;0.90;99.90
25811;DHT22;13645;52.460;13.910;2022-11-20T17:15:21;0.80;99.90
25811;DHT22;13645;52.460;13.910;2022-11-20T17:17:48;0.80;99.90
25811;DHT22;13645;52.460;13.910;2022-11-20T17:20:14;0.70;99.90
25811;DHT22;13645;52.460;13.910;2022-11-20T17:22:42;0.70;99.90
25811;DHT22;13645;52.460;13.910;2022-11-20T17:25:09;0.60;99.90